sensor_id;sensor_type;location;lat;lon;timestamp;pressure;altitude;pressure_sealevel;temperature;humidity
60240;BME280;46102;39.012;-7.064;2022-08-05T00:01:16;98121.75;;;23.74;60.90
60240;BME280;46102;39.012;-7.064;2022-08-05T00:03:17;98128.59;;;23.65;61.22
60240;BME280;46102;39.012;-7.064;2022-08-05T00:05:21;98135.91;;;23.56;61.44
60240;BME280;46102;39.012;-7.064;2022-08-05T00:07:23;98135.59;;;23.46;61.61
60240;BME280;46102;39.012;-7.064;2022-08-05T00:09:24;98127.22;;;23.43;61.81
60240;BME280;46102;39.012;-7.064;2022-08-05T00:11:24;98126.91;;;23.34;62.03
60240;BME280;46102;39.012;-7.064;2022-08-05T00:13:27;98131.72;;;23.30;62.19
60240;BME280;46102;39.012;-7.064;2022-08-05T00:15:28;98128.53;;;23.31;62.17
60240;BME280;46102;39.012;-7.064;2022-08-05T00:17:29;98130.63;;;23.20;62.50
60240;BME280;46102;39.012;-7.064;2022-08-05T00:19:30;98137.06;;;23.13;62.73
60240;BME280;46102;39.012;-7.064;2022-08-05T00:21:30;98141.94;;;22.98;63.08
60240;BME280;46102;39.012;-7.064;2022-08-05T00:23:31;98138.78;;;22.93;63.17
60240;BME280;46102;39.012;-7.064;2022-08-05T00:25:32;98147.63;;;22.84;63.51
60240;BME280;46102;39.012;-7.064;2022-08-05T00:27:33;98161.22;;;22.82;63.94
60240;BME280;46102;39.012;-7.064;2022-08-05T00:29:34;98151.16;;;22.95;63.70
60240;BME280;46102;39.012;-7.064;2022-08-05T00:31:34;98152.09;;;22.74;64.32
60240;BME280;46102;39.012;-7.064;2022-08-05T00:33:35;98154.91;;;22.67;64.50
60240;BME280;46102;39.012;-7.064;2022-08-05T00:35:36;98145.78;;;22.56;64.80
60240;BME280;46102;39.012;-7.064;2022-08-05T00:37:37;98155.38;;;22.51;65.04
60240;BME280;46102;39.012;-7.064;2022-08-05T00:39:38;98156.59;;;22.50;65.10
60240;BME280;46102;39.012;-7.064;2022-08-05T00:41:43;98152.19;;;22.49;65.18
60240;BME280;46102;39.012;-7.064;2022-08-05T00:43:44;98157.78;;;22.53;64.99
60240;BME280;46102;39.012;-7.064;2022-08-05T00:45:46;98159.41;;;22.47;65.01
60240;BME280;46102;39.012;-7.064;2022-08-05T00:47:47;98163.38;;;22.56;64.71
60240;BME280;46102;39.012;-7.064;2022-08-05T00:49:48;98162.22;;;22.39;65.26
60240;BME280;46102;39.012;-7.064;2022-08-05T00:51:49;98162.66;;;22.34;65.61
60240;BME280;46102;39.012;-7.064;2022-08-05T00:53:49;98157.50;;;22.29;65.73
60240;BME280;46102;39.012;-7.064;2022-08-05T00:55:50;98162.66;;;22.34;65.86
60240;BME280;46102;39.012;-7.064;2022-08-05T00:57:51;98153.91;;;22.25;65.83
60240;BME280;46102;39.012;-7.064;2022-08-05T00:59:52;98161.47;;;22.21;65.83
60240;BME280;46102;39.012;-7.064;2022-08-05T01:01:52;98158.28;;;22.26;65.62
60240;BME280;46102;39.012;-7.064;2022-08-05T01:03:53;98159.91;;;22.27;65.90
60240;BME280;46102;39.012;-7.064;2022-08-05T01:05:54;98165.47;;;22.20;65.71
60240;BME280;46102;39.012;-7.064;2022-08-05T01:07:55;98166.28;;;22.17;65.85
60240;BME280;46102;39.012;-7.064;2022-08-05T01:09:55;98163.91;;;22.08;66.16
60240;BME280;46102;39.012;-7.064;2022-08-05T01:11:58;98160.31;;;22.04;65.95
60240;BME280;46102;39.012;-7.064;2022-08-05T01:14:16;98169.53;;;22.04;65.71
60240;BME280;46102;39.012;-7.064;2022-08-05T01:18:36;98173.53;;;22.00;66.07
60240;BME280;46102;39.012;-7.064;2022-08-05T01:25:29;98179.50;;;21.84;66.45
60240;BME280;46102;39.012;-7.064;2022-08-05T01:29:56;98177.91;;;21.79;66.49
60240;BME280;46102;39.012;-7.064;2022-08-05T01:32:02;98185.09;;;21.77;66.53
60240;BME280;46102;39.012;-7.064;2022-08-05T01:34:16;98179.94;;;21.65;67.06
60240;BME280;46102;39.012;-7.064;2022-08-05T01:36:19;98181.56;;;21.55;67.42
60240;BME280;46102;39.012;-7.064;2022-08-05T01:38:21;98187.53;;;21.50;67.72
60240;BME280;46102;39.012;-7.064;2022-08-05T01:40:26;98183.13;;;21.38;67.95
60240;BME280;46102;39.012;-7.064;2022-08-05T01:42:30;98181.91;;;21.39;67.78
60240;BME280;46102;39.012;-7.064;2022-08-05T01:44:33;98183.13;;;21.38;67.84
60240;BME280;46102;39.012;-7.064;2022-08-05T01:46:36;98181.13;;;21.38;68.26
60240;BME280;46102;39.012;-7.064;2022-08-05T01:48:39;98182.34;;;21.30;68.42
60240;BME280;46102;39.012;-7.064;2022-08-05T01:50:41;98191.06;;;21.25;68.67
60240;BME280;46102;39.012;-7.064;2022-08-05T01:52:44;98185.91;;;21.27;68.65
60240;BME280;46102;39.012;-7.064;2022-08-05T01:54:57;98183.50;;;21.11;68.89
60240;BME280;46102;39.012;-7.064;2022-08-05T01:56:59;98197.03;;;21.06;69.20
60240;BME280;46102;39.012;-7.064;2022-08-05T01:59:07;98198.22;;;21.12;68.87
60240;BME280;46102;39.012;-7.064;2022-08-05T02:01:11;98190.69;;;21.19;68.43
60240;BME280;46102;39.012;-7.064;2022-08-05T02:03:18;98188.28;;;21.11;68.82
60240;BME280;46102;39.012;-7.064;2022-08-05T02:05:22;98181.91;;;21.07;69.16
60240;BME280;46102;39.012;-7.064;2022-08-05T02:07:25;98185.47;;;21.04;69.30
60240;BME280;46102;39.012;-7.064;2022-08-05T02:09:26;98186.69;;;20.99;69.22
60240;BME280;46102;39.012;-7.064;2022-08-05T02:11:40;98185.03;;;20.87;69.65
60240;BME280;46102;39.012;-7.064;2022-08-05T02:16:21;98192.63;;;20.94;69.34
60240;BME280;46102;39.012;-7.064;2022-08-05T02:18:31;98189.41;;;20.81;69.47
60240;BME280;46102;39.012;-7.064;2022-08-05T02:22:55;98178.25;;;20.74;69.94
60240;BME280;46102;39.012;-7.064;2022-08-05T02:25:17;98185.41;;;20.75;69.76
60240;BME280;46102;39.012;-7.064;2022-08-05T02:27:20;98183.41;;;20.75;69.64
60240;BME280;46102;39.012;-7.064;2022-08-05T02:29:25;98180.28;;;20.81;69.50
60240;BME280;46102;39.012;-7.064;2022-08-05T02:31:28;98177.47;;;20.81;69.76
60240;BME280;46102;39.012;-7.064;2022-08-05T02:33:35;98185.03;;;20.87;69.35
60240;BME280;46102;39.012;-7.064;2022-08-05T02:35:37;98188.25;;;20.93;69.07
60240;BME280;46102;39.012;-7.064;2022-08-05T02:37:42;98184.66;;;20.92;69.26
60240;BME280;46102;39.012;-7.064;2022-08-05T02:39:44;98178.31;;;20.92;69.38
60240;BME280;46102;39.012;-7.064;2022-08-05T02:41:47;98171.53;;;20.93;69.07
60240;BME280;46102;39.012;-7.064;2022-08-05T02:43:50;98181.06;;;20.95;69.45
60240;BME280;46102;39.012;-7.064;2022-08-05T02:45:52;98177.09;;;20.93;69.29
60240;BME280;46102;39.012;-7.064;2022-08-05T02:47:54;98174.69;;;20.88;69.74
60240;BME280;46102;39.012;-7.064;2022-08-05T02:49:55;98174.31;;;20.86;69.66
60240;BME280;46102;39.012;-7.064;2022-08-05T02:51:57;98178.69;;;20.83;69.93
60240;BME280;46102;39.012;-7.064;2022-08-05T02:53:59;98174.69;;;20.81;69.90
60240;BME280;46102;39.012;-7.064;2022-08-05T02:56:00;98179.88;;;20.89;69.90
60240;BME280;46102;39.012;-7.064;2022-08-05T02:58:02;98171.09;;;20.87;69.72
60240;BME280;46102;39.012;-7.064;2022-08-05T03:00:04;98176.28;;;20.89;69.59
60240;BME280;46102;39.012;-7.064;2022-08-05T03:02:06;98170.72;;;20.85;69.67
60240;BME280;46102;39.012;-7.064;2022-08-05T03:04:12;98171.50;;;20.78;69.68
60240;BME280;46102;39.012;-7.064;2022-08-05T03:06:13;98178.63;;;20.76;69.93
60240;BME280;46102;39.012;-7.064;2022-08-05T03:08:15;98179.47;;;20.76;69.73
60240;BME280;46102;39.012;-7.064;2022-08-05T03:10:17;98176.66;;;20.73;69.87
60240;BME280;46102;39.012;-7.064;2022-08-05T03:12:37;98184.63;;;20.78;69.56
60240;BME280;46102;39.012;-7.064;2022-08-05T03:14:38;98181.03;;;20.74;69.82
60240;BME280;46102;39.012;-7.064;2022-08-05T03:16:39;98173.44;;;20.71;69.60
60240;BME280;46102;39.012;-7.064;2022-08-05T03:18:40;98173.47;;;20.67;70.09
60240;BME280;46102;39.012;-7.064;2022-08-05T03:20:41;98177.41;;;20.59;70.11
60240;BME280;46102;39.012;-7.064;2022-08-05T03:22:41;98180.16;;;20.52;70.66
60240;BME280;46102;39.012;-7.064;2022-08-05T03:24:43;98182.94;;;20.52;70.36
60240;BME280;46102;39.012;-7.064;2022-08-05T03:26:45;98178.94;;;20.49;70.48
60240;BME280;46102;39.012;-7.064;2022-08-05T03:28:46;98166.19;;;20.45;70.54
60240;BME280;46102;39.012;-7.064;2022-08-05T03:30:47;98178.13;;;20.49;70.67
60240;BME280;46102;39.012;-7.064;2022-08-05T03:32:49;98179.72;;;20.43;70.72
60240;BME280;46102;39.012;-7.064;2022-08-05T03:34:51;98178.09;;;20.42;70.75
60240;BME280;46102;39.012;-7.064;2022-08-05T03:36:51;98177.69;;;20.36;71.16
60240;BME280;46102;39.012;-7.064;2022-08-05T03:38:52;98176.09;;;20.35;70.92
60240;BME280;46102;39.012;-7.064;2022-08-05T03:40:53;98176.84;;;20.25;71.29
60240;BME280;46102;39.012;-7.064;2022-08-05T03:42:54;98172.84;;;20.18;71.61
60240;BME280;46102;39.012;-7.064;2022-08-05T03:44:55;98168.03;;;20.12;71.92
60240;BME280;46102;39.012;-7.064;2022-08-05T03:46:55;98170.84;;;20.15;71.68
60240;BME280;46102;39.012;-7.064;2022-08-05T03:48:57;98172.00;;;20.11;71.96
60240;BME280;46102;39.012;-7.064;2022-08-05T03:51:14;98168.00;;;20.08;71.89
60240;BME280;46102;39.012;-7.064;2022-08-05T03:53:30;98164.38;;;20.01;72.40
60240;BME280;46102;39.012;-7.064;2022-08-05T03:55:36;98173.88;;;19.92;72.74
60240;BME280;46102;39.012;-7.064;2022-08-05T03:57:41;98169.13;;;19.96;73.00
60240;BME280;46102;39.012;-7.064;2022-08-05T03:59:52;98173.03;;;19.85;72.97
60240;BME280;46102;39.012;-7.064;2022-08-05T04:01:55;98166.69;;;19.84;73.11
60240;BME280;46102;39.012;-7.064;2022-08-05T04:03:59;98169.47;;;19.84;73.22
60240;BME280;46102;39.012;-7.064;2022-08-05T04:06:02;98175.38;;;19.75;73.59
60240;BME280;46102;39.012;-7.064;2022-08-05T04:08:06;98170.59;;;19.76;73.75
60240;BME280;46102;39.012;-7.064;2022-08-05T04:10:07;98165.81;;;19.73;73.70
60240;BME280;46102;39.012;-7.064;2022-08-05T04:12:08;98172.09;;;19.66;73.98
60240;BME280;46102;39.012;-7.064;2022-08-05T04:14:09;98171.66;;;19.61;74.26
60240;BME280;46102;39.012;-7.064;2022-08-05T04:16:12;98178.78;;;19.58;74.14
60240;BME280;46102;39.012;-7.064;2022-08-05T04:18:13;98167.94;;;19.42;74.61
60240;BME280;46102;39.012;-7.064;2022-08-05T04:20:22;98172.41;;;19.50;74.38
60240;BME280;46102;39.012;-7.064;2022-08-05T04:22:22;98175.03;;;19.36;74.63
60240;BME280;46102;39.012;-7.064;2022-08-05T04:24:23;98178.56;;;19.29;75.09
60240;BME280;46102;39.012;-7.064;2022-08-05T04:26:24;98176.56;;;19.26;75.30
60240;BME280;46102;39.012;-7.064;2022-08-05T04:28:25;98181.28;;;19.22;75.62
60240;BME280;46102;39.012;-7.064;2022-08-05T04:30:26;98173.31;;;19.17;75.71
60240;BME280;46102;39.012;-7.064;2022-08-05T04:32:26;98184.38;;;19.13;76.10
60240;BME280;46102;39.012;-7.064;2022-08-05T04:34:27;98183.47;;;18.99;76.47
60240;BME280;46102;39.012;-7.064;2022-08-05T04:36:28;98176.34;;;19.05;76.56
60240;BME280;46102;39.012;-7.064;2022-08-05T04:38:29;98179.13;;;19.01;76.88
60240;BME280;46102;39.012;-7.064;2022-08-05T04:40:35;98178.69;;;18.99;77.07
60240;BME280;46102;39.012;-7.064;2022-08-05T04:42:37;98188.53;;;18.89;77.69
60240;BME280;46102;39.012;-7.064;2022-08-05T04:44:37;98187.66;;;18.82;78.00
60240;BME280;46102;39.012;-7.064;2022-08-05T04:46:38;98187.16;;;18.76;78.36
60240;BME280;46102;39.012;-7.064;2022-08-05T04:48:39;98183.66;;;18.79;78.10
60240;BME280;46102;39.012;-7.064;2022-08-05T04:50:45;98188.84;;;18.81;78.23
60240;BME280;46102;39.012;-7.064;2022-08-05T04:52:46;98183.28;;;18.81;78.36
60240;BME280;46102;39.012;-7.064;2022-08-05T04:54:47;98189.22;;;18.79;78.59
60240;BME280;46102;39.012;-7.064;2022-08-05T04:56:47;98183.22;;;18.77;78.72
60240;BME280;46102;39.012;-7.064;2022-08-05T04:58:48;98183.91;;;18.70;79.11
60240;BME280;46102;39.012;-7.064;2022-08-05T05:00:49;98181.63;;;18.76;79.31
60240;BME280;46102;39.012;-7.064;2022-08-05T05:02:50;98181.63;;;18.76;79.28
60240;BME280;46102;39.012;-7.064;2022-08-05T05:04:51;98181.94;;;18.71;79.39
60240;BME280;46102;39.012;-7.064;2022-08-05T05:06:52;98178.38;;;18.70;79.59
60240;BME280;46102;39.012;-7.064;2022-08-05T05:08:52;98182.28;;;18.66;79.71
60240;BME280;46102;39.012;-7.064;2022-08-05T05:10:53;98183.00;;;18.59;80.17
60240;BME280;46102;39.012;-7.064;2022-08-05T05:12:55;98181.50;;;18.65;80.08
60240;BME280;46102;39.012;-7.064;2022-08-05T05:14:56;98185.47;;;18.68;79.91
60240;BME280;46102;39.012;-7.064;2022-08-05T05:16:58;98197.03;;;18.70;79.67
60240;BME280;46102;39.012;-7.064;2022-08-05T05:18:59;98203.00;;;18.72;79.60
60240;BME280;46102;39.012;-7.064;2022-08-05T05:21:01;98189.63;;;18.81;79.34
60240;BME280;46102;39.012;-7.064;2022-08-05T05:23:02;98198.81;;;18.85;79.52
60240;BME280;46102;39.012;-7.064;2022-08-05T05:25:07;98197.53;;;18.79;79.57
60240;BME280;46102;39.012;-7.064;2022-08-05T05:27:08;98193.88;;;18.71;79.86
60240;BME280;46102;39.012;-7.064;2022-08-05T05:29:08;98197.44;;;18.72;80.00
60240;BME280;46102;39.012;-7.064;2022-08-05T05:31:09;98202.53;;;18.66;80.21
60240;BME280;46102;39.012;-7.064;2022-08-05T05:33:10;98208.06;;;18.63;80.27
60240;BME280;46102;39.012;-7.064;2022-08-05T05:35:11;98209.56;;;18.57;80.44
60240;BME280;46102;39.012;-7.064;2022-08-05T05:37:12;98199.28;;;18.61;80.17
60240;BME280;46102;39.012;-7.064;2022-08-05T05:39:14;98204.56;;;18.69;79.74
60240;BME280;46102;39.012;-7.064;2022-08-05T05:41:15;98201.38;;;18.67;79.81
60240;BME280;46102;39.012;-7.064;2022-08-05T05:43:16;98205.28;;;18.63;79.83
60240;BME280;46102;39.012;-7.064;2022-08-05T05:45:17;98199.34;;;18.64;79.95
60240;BME280;46102;39.012;-7.064;2022-08-05T05:47:18;98199.72;;;18.63;80.07
60240;BME280;46102;39.012;-7.064;2022-08-05T05:49:21;98203.59;;;18.55;80.22
60240;BME280;46102;39.012;-7.064;2022-08-05T05:51:23;98209.56;;;18.57;80.25
60240;BME280;46102;39.012;-7.064;2022-08-05T05:53:24;98207.56;;;18.54;80.40
60240;BME280;46102;39.012;-7.064;2022-08-05T05:55:25;98202.38;;;18.52;80.47
60240;BME280;46102;39.012;-7.064;2022-08-05T05:57:25;98215.81;;;18.46;80.84
60240;BME280;46102;39.012;-7.064;2022-08-05T05:59:26;98212.63;;;18.48;81.20
60240;BME280;46102;39.012;-7.064;2022-08-05T06:01:27;98208.69;;;18.49;80.84
60240;BME280;46102;39.012;-7.064;2022-08-05T06:03:28;98220.31;;;18.58;80.81
60240;BME280;46102;39.012;-7.064;2022-08-05T06:05:28;98214.34;;;18.60;80.53
60240;BME280;46102;39.012;-7.064;2022-08-05T06:07:29;98215.47;;;18.55;80.91
60240;BME280;46102;39.012;-7.064;2022-08-05T06:09:30;98227.38;;;18.52;81.07
60240;BME280;46102;39.012;-7.064;2022-08-05T06:11:31;98224.59;;;18.52;80.88
60240;BME280;46102;39.012;-7.064;2022-08-05T06:13:32;98230.94;;;18.52;80.91
60240;BME280;46102;39.012;-7.064;2022-08-05T06:15:35;98234.94;;;18.55;81.00
60240;BME280;46102;39.012;-7.064;2022-08-05T06:17:35;98236.69;;;18.67;80.51
60240;BME280;46102;39.012;-7.064;2022-08-05T06:19:36;98243.47;;;18.69;80.58
60240;BME280;46102;39.012;-7.064;2022-08-05T06:21:37;98241.13;;;18.75;80.12
60240;BME280;46102;39.012;-7.064;2022-08-05T06:23:38;98257.16;;;18.85;79.58
60240;BME280;46102;39.012;-7.064;2022-08-05T06:25:39;98254.03;;;18.90;79.27
60240;BME280;46102;39.012;-7.064;2022-08-05T06:27:40;98255.72;;;18.99;78.86
60240;BME280;46102;39.012;-7.064;2022-08-05T06:29:41;98253.66;;;18.92;79.31
60240;BME280;46102;39.012;-7.064;2022-08-05T06:31:42;98258.44;;;18.95;79.25
60240;BME280;46102;39.012;-7.064;2022-08-05T06:33:43;98258.09;;;19.00;79.17
60240;BME280;46102;39.012;-7.064;2022-08-05T06:35:43;98268.84;;;19.02;79.13
60240;BME280;46102;39.012;-7.064;2022-08-05T06:37:44;98277.25;;;19.09;78.58
60240;BME280;46102;39.012;-7.064;2022-08-05T06:39:45;98271.78;;;19.16;78.32
60240;BME280;46102;39.012;-7.064;2022-08-05T06:41:46;98271.88;;;19.23;77.82
60240;BME280;46102;39.012;-7.064;2022-08-05T06:43:47;98282.69;;;19.32;77.37
60240;BME280;46102;39.012;-7.064;2022-08-05T06:45:48;98283.91;;;19.34;76.95
60240;BME280;46102;39.012;-7.064;2022-08-05T06:47:49;98285.53;;;19.39;76.82
60240;BME280;46102;39.012;-7.064;2022-08-05T06:49:49;98284.44;;;19.51;76.16
60240;BME280;46102;39.012;-7.064;2022-08-05T06:51:50;98276.09;;;19.51;76.08
60240;BME280;46102;39.012;-7.064;2022-08-05T06:53:51;98272.97;;;19.56;75.93
60240;BME280;46102;39.012;-7.064;2022-08-05T06:55:52;98275.84;;;19.67;75.52
60240;BME280;46102;39.012;-7.064;2022-08-05T06:57:53;98284.66;;;19.69;75.43
60240;BME280;46102;39.012;-7.064;2022-08-05T06:59:53;98286.38;;;19.84;75.07
60240;BME280;46102;39.012;-7.064;2022-08-05T07:01:54;98285.34;;;20.07;74.06
60240;BME280;46102;39.012;-7.064;2022-08-05T07:03:55;98291.03;;;20.25;73.01
60240;BME280;46102;39.012;-7.064;2022-08-05T07:05:56;98291.47;;;20.34;72.78
60240;BME280;46102;39.012;-7.064;2022-08-05T07:07:56;98295.13;;;20.45;72.17
60240;BME280;46102;39.012;-7.064;2022-08-05T07:09:57;98293.22;;;20.60;71.07
60240;BME280;46102;39.012;-7.064;2022-08-05T07:11:58;98286.97;;;20.81;69.85
60240;BME280;46102;39.012;-7.064;2022-08-05T07:13:58;98289.78;;;20.88;69.24
60240;BME280;46102;39.012;-7.064;2022-08-05T07:16:18;98296.63;;;21.09;68.76
60240;BME280;46102;39.012;-7.064;2022-08-05T07:18:37;98304.59;;;21.07;68.78
60240;BME280;46102;39.012;-7.064;2022-08-05T07:20:39;98302.22;;;21.12;68.50
60240;BME280;46102;39.012;-7.064;2022-08-05T07:22:39;98303.06;;;21.24;68.19
60240;BME280;46102;39.012;-7.064;2022-08-05T07:24:40;98308.66;;;21.38;68.33
60240;BME280;46102;39.012;-7.064;2022-08-05T07:26:41;98307.91;;;21.59;67.04
60240;BME280;46102;39.012;-7.064;2022-08-05T07:28:42;98312.31;;;21.74;66.76
60240;BME280;46102;39.012;-7.064;2022-08-05T07:30:43;98311.94;;;21.97;65.70
60240;BME280;46102;39.012;-7.064;2022-08-05T07:32:43;98322.34;;;22.29;64.64
60240;BME280;46102;39.012;-7.064;2022-08-05T07:34:44;98316.69;;;22.40;63.91
60240;BME280;46102;39.012;-7.064;2022-08-05T07:36:45;98316.69;;;22.54;63.37
60240;BME280;46102;39.012;-7.064;2022-08-05T07:38:46;98313.06;;;22.68;63.09
60240;BME280;46102;39.012;-7.064;2022-08-05T07:40:47;98307.38;;;22.90;62.28
60240;BME280;46102;39.012;-7.064;2022-08-05T07:42:48;98314.53;;;23.09;61.68
60240;BME280;46102;39.012;-7.064;2022-08-05T07:44:49;98322.03;;;23.26;60.87
60240;BME280;46102;39.012;-7.064;2022-08-05T07:46:50;98321.56;;;23.35;60.57
60240;BME280;46102;39.012;-7.064;2022-08-05T07:48:51;98321.88;;;23.51;60.12
60240;BME280;46102;39.012;-7.064;2022-08-05T07:50:52;98319.72;;;23.73;59.73
60240;BME280;46102;39.012;-7.064;2022-08-05T07:52:52;98320.44;;;23.92;58.85
60240;BME280;46102;39.012;-7.064;2022-08-05T07:54:53;98323.09;;;24.06;58.17
60240;BME280;46102;39.012;-7.064;2022-08-05T07:56:54;98322.28;;;24.09;58.25
60240;BME280;46102;39.012;-7.064;2022-08-05T07:58:55;98319.78;;;24.18;57.58
60240;BME280;46102;39.012;-7.064;2022-08-05T08:00:55;98320.16;;;24.24;57.70
60240;BME280;46102;39.012;-7.064;2022-08-05T08:02:56;98326.53;;;24.28;57.18
60240;BME280;46102;39.012;-7.064;2022-08-05T08:04:58;98328.84;;;24.37;57.45
60240;BME280;46102;39.012;-7.064;2022-08-05T08:06:59;98320.28;;;24.55;56.84
60240;BME280;46102;39.012;-7.064;2022-08-05T08:09:00;98327.25;;;24.77;56.43
60240;BME280;46102;39.012;-7.064;2022-08-05T08:11:01;98326.66;;;24.93;55.50
60240;BME280;46102;39.012;-7.064;2022-08-05T08:13:02;98316.09;;;25.04;55.30
60240;BME280;46102;39.012;-7.064;2022-08-05T08:15:03;98324.81;;;25.13;54.87
60240;BME280;46102;39.012;-7.064;2022-08-05T08:17:04;98317.38;;;25.30;54.61
60240;BME280;46102;39.012;-7.064;2022-08-05T08:19:09;98324.44;;;25.42;54.25
60240;BME280;46102;39.012;-7.064;2022-08-05T08:21:10;98319.56;;;25.46;53.80
60240;BME280;46102;39.012;-7.064;2022-08-05T08:23:11;98332.78;;;25.49;53.88
60240;BME280;46102;39.012;-7.064;2022-08-05T08:25:12;98331.34;;;25.65;53.87
60240;BME280;46102;39.012;-7.064;2022-08-05T08:27:13;98330.63;;;25.84;53.14
60240;BME280;46102;39.012;-7.064;2022-08-05T08:29:14;98324.38;;;26.00;52.14
60240;BME280;46102;39.012;-7.064;2022-08-05T08:31:15;98331.53;;;26.05;52.08
60240;BME280;46102;39.012;-7.064;2022-08-05T08:33:15;98335.69;;;26.20;51.51
60240;BME280;46102;39.012;-7.064;2022-08-05T08:35:16;98333.69;;;26.21;51.36
60240;BME280;46102;39.012;-7.064;2022-08-05T08:37:17;98332.06;;;26.23;51.60
60240;BME280;46102;39.012;-7.064;2022-08-05T08:39:18;98326.91;;;26.42;51.43
60240;BME280;46102;39.012;-7.064;2022-08-05T08:41:20;98331.06;;;26.57;50.90
60240;BME280;46102;39.012;-7.064;2022-08-05T08:43:22;98332.69;;;26.78;50.16
60240;BME280;46102;39.012;-7.064;2022-08-05T08:45:25;98325.53;;;26.93;49.82
60240;BME280;46102;39.012;-7.064;2022-08-05T08:47:27;98337.81;;;27.03;49.72
60240;BME280;46102;39.012;-7.064;2022-08-05T08:49:30;98328.50;;;27.26;49.21
60240;BME280;46102;39.012;-7.064;2022-08-05T08:51:36;98338.94;;;27.46;48.60
60240;BME280;46102;39.012;-7.064;2022-08-05T08:53:38;98333.13;;;27.36;48.57
60240;BME280;46102;39.012;-7.064;2022-08-05T08:55:41;98326.38;;;27.50;48.01
60240;BME280;46102;39.012;-7.064;2022-08-05T08:57:42;98331.03;;;27.57;47.96
60240;BME280;46102;39.012;-7.064;2022-08-05T08:59:44;98339.09;;;27.75;47.79
60240;BME280;46102;39.012;-7.064;2022-08-05T09:01:46;98334.56;;;27.97;46.64
60240;BME280;46102;39.012;-7.064;2022-08-05T09:03:49;98332.78;;;27.87;46.77
60240;BME280;46102;39.012;-7.064;2022-08-05T09:05:50;98335.16;;;27.89;47.01
60240;BME280;46102;39.012;-7.064;2022-08-05T09:07:51;98332.16;;;28.12;46.23
60240;BME280;46102;39.012;-7.064;2022-08-05T09:09:53;98330.59;;;28.11;46.28
60240;BME280;46102;39.012;-7.064;2022-08-05T09:11:54;98329.06;;;28.23;46.20
60240;BME280;46102;39.012;-7.064;2022-08-05T09:13:55;98332.56;;;28.43;45.85
60240;BME280;46102;39.012;-7.064;2022-08-05T09:15:56;98336.69;;;28.72;45.41
60240;BME280;46102;39.012;-7.064;2022-08-05T09:17:57;98332.25;;;28.87;44.50
60240;BME280;46102;39.012;-7.064;2022-08-05T09:19:58;98337.91;;;29.00;44.38
60240;BME280;46102;39.012;-7.064;2022-08-05T09:22:00;98331.00;;;29.17;44.00
60240;BME280;46102;39.012;-7.064;2022-08-05T09:24:05;98333.72;;;29.34;43.41
60240;BME280;46102;39.012;-7.064;2022-08-05T09:26:11;98344.25;;;29.33;43.39
60240;BME280;46102;39.012;-7.064;2022-08-05T09:28:13;98339.69;;;29.10;44.09
60240;BME280;46102;39.012;-7.064;2022-08-05T09:30:15;98335.06;;;29.29;43.77
60240;BME280;46102;39.012;-7.064;2022-08-05T09:32:16;98339.75;;;29.48;43.24
60240;BME280;46102;39.012;-7.064;2022-08-05T09:34:18;98339.44;;;29.72;42.26
60240;BME280;46102;39.012;-7.064;2022-08-05T09:36:19;98333.00;;;29.97;42.39
60240;BME280;46102;39.012;-7.064;2022-08-05T09:38:20;98330.72;;;30.05;41.34
60240;BME280;46102;39.012;-7.064;2022-08-05T09:40:36;98333.88;;;30.20;41.42
60240;BME280;46102;39.012;-7.064;2022-08-05T09:42:39;98340.50;;;30.26;40.86
60240;BME280;46102;39.012;-7.064;2022-08-05T09:44:46;98337.03;;;30.22;40.87
60240;BME280;46102;39.012;-7.064;2022-08-05T09:46:47;98338.94;;;30.25;40.71
60240;BME280;46102;39.012;-7.064;2022-08-05T09:48:47;98332.84;;;30.14;41.16
60240;BME280;46102;39.012;-7.064;2022-08-05T09:50:49;98336.81;;;30.29;40.63
60240;BME280;46102;39.012;-7.064;2022-08-05T09:52:56;98339.47;;;30.58;39.87
60240;BME280;46102;39.012;-7.064;2022-08-05T09:57:01;98339.31;;;30.14;40.38
60240;BME280;46102;39.012;-7.064;2022-08-05T09:59:07;98349.81;;;30.26;40.50
60240;BME280;46102;39.012;-7.064;2022-08-05T10:01:11;98343.44;;;30.48;39.67
60240;BME280;46102;39.012;-7.064;2022-08-05T10:03:12;98342.81;;;30.66;39.32
60240;BME280;46102;39.012;-7.064;2022-08-05T10:05:18;98333.16;;;30.76;39.02
60240;BME280;46102;39.012;-7.064;2022-08-05T10:07:19;98332.13;;;30.83;39.05
60240;BME280;46102;39.012;-7.064;2022-08-05T10:09:20;98336.94;;;30.95;38.40
60240;BME280;46102;39.012;-7.064;2022-08-05T10:11:21;98339.84;;;31.04;37.88
60240;BME280;46102;39.012;-7.064;2022-08-05T10:17:29;98343.13;;;31.25;37.03
60240;BME280;46102;39.012;-7.064;2022-08-05T10:19:30;98339.19;;;31.00;37.74
60240;BME280;46102;39.012;-7.064;2022-08-05T10:21:31;98337.84;;;31.14;37.32
60240;BME280;46102;39.012;-7.064;2022-08-05T10:23:35;98340.91;;;31.20;36.30
60240;BME280;46102;39.012;-7.064;2022-08-05T10:25:36;98337.94;;;31.23;36.22
60240;BME280;46102;39.012;-7.064;2022-08-05T10:27:37;98341.78;;;31.39;36.16
60240;BME280;46102;39.012;-7.064;2022-08-05T10:29:38;98339.00;;;31.79;36.08
60240;BME280;46102;39.012;-7.064;2022-08-05T10:31:40;98332.13;;;31.89;35.43
60240;BME280;46102;39.012;-7.064;2022-08-05T10:33:41;98339.34;;;32.22;35.41
60240;BME280;46102;39.012;-7.064;2022-08-05T10:35:45;98343.28;;;32.24;34.30
60240;BME280;46102;39.012;-7.064;2022-08-05T10:37:46;98340.59;;;32.11;34.80
60240;BME280;46102;39.012;-7.064;2022-08-05T10:39:49;98341.03;;;32.01;35.07
60240;BME280;46102;39.012;-7.064;2022-08-05T10:42:00;98341.56;;;32.27;34.52
60240;BME280;46102;39.012;-7.064;2022-08-05T10:44:06;98337.75;;;32.11;34.80
60240;BME280;46102;39.012;-7.064;2022-08-05T10:46:11;98341.53;;;32.18;34.51
60240;BME280;46102;39.012;-7.064;2022-08-05T10:50:32;98328.53;;;32.66;33.55
60240;BME280;46102;39.012;-7.064;2022-08-05T10:52:44;98336.06;;;32.51;32.90
60240;BME280;46102;39.012;-7.064;2022-08-05T10:54:47;98336.22;;;32.38;33.70
60240;BME280;46102;39.012;-7.064;2022-08-05T10:57:01;98327.59;;;32.60;33.52
60240;BME280;46102;39.012;-7.064;2022-08-05T10:59:05;98325.56;;;32.79;33.29
60240;BME280;46102;39.012;-7.064;2022-08-05T11:01:06;98323.31;;;32.74;33.08
60240;BME280;46102;39.012;-7.064;2022-08-05T11:03:11;98323.31;;;32.65;33.31